Time;durP1;ratioP1;P1;durP2;ratioP2;P2;SDS_P1;SDS_P2;PMS_P1;PMS_P2;Temp;Humidity;BMP_temperature;BMP_pressure;BME280_temperature;BME280_humidity;BME280_pressure;Samples;Min_cycle;Max_cycle;Signal;HPM_P1;HPM_P2
2024/02/10 00:00:28;;;;;;;12.57;5.47;;;;;;;12.04;100.00;98478.97;5111264;28;20447;-48
2024/02/10 00:02:57;;;;;;;12.50;5.45;;;;;;;12.03;100.00;98479.13;5110881;28;20637;-48
2024/02/10 00:05:26;;;;;;;13.50;5.22;;;;;;;12.03;100.00;98482.66;5111480;28;20079;-49
2024/02/10 00:07:55;;;;;;;12.10;5.85;;;;;;;12.00;100.00;98474.94;5114917;28;20043;-46
2024/02/10 00:10:27;;;;;;;12.65;4.93;;;;;;;11.98;100.00;98476.06;5114784;28;20040;-48
2024/02/10 00:12:59;;;;;;;13.05;4.90;;;;;;;12.02;100.00;98475.63;5114679;28;20047;-50
2024/02/10 00:15:28;;;;;;;9.23;5.07;;;;;;;12.00;100.00;98477.59;5115091;28;20500;-52
2024/02/10 00:17:57;;;;;;;11.70;5.50;;;;;;;12.01;100.00;98468.59;5115210;28;20043;-53
2024/02/10 00:20:25;;;;;;;14.60;5.50;;;;;;;12.07;100.00;98472.53;5115066;28;20083;-50
2024/02/10 00:22:56;;;;;;;14.10;5.20;;;;;;;11.98;100.00;98476.91;5114801;28;20108;-49
2024/02/10 00:25:25;;;;;;;12.05;4.85;;;;;;;11.99;100.00;98470.56;5114880;28;20075;-51
2024/02/10 00:27:53;;;;;;;14.35;5.05;;;;;;;11.86;100.00;98469.19;5114735;28;20048;-50
2024/02/10 00:30:24;;;;;;;11.20;5.20;;;;;;;11.86;100.00;98464.69;5114810;27;20110;-50
2024/02/10 00:32:52;;;;;;;11.50;4.93;;;;;;;11.94;100.00;98471.97;5114496;28;20051;-51
2024/02/10 00:35:22;;;;;;;11.52;5.20;;;;;;;11.80;100.00;98469.78;5114721;28;20055;-51
2024/02/10 00:37:53;;;;;;;12.73;5.50;;;;;;;11.79;100.00;98468.91;5113303;28;20055;-47
2024/02/10 00:40:21;;;;;;;12.05;5.07;;;;;;;11.80;100.00;98469.78;5114334;28;20055;-48
2024/02/10 00:42:51;;;;;;;14.70;5.25;;;;;;;11.80;100.00;98465.28;5115710;28;20043;-49
2024/02/10 00:45:21;;;;;;;10.63;5.70;;;;;;;11.81;100.00;98466.94;5116627;28;20467;-48
2024/02/10 00:47:52;;;;;;;10.65;5.35;;;;;;;11.72;100.00;98473.13;5114444;28;20430;-47
2024/02/10 00:50:21;;;;;;;13.25;6.40;;;;;;;11.82;100.00;98465.13;5114510;28;20503;-47
2024/02/10 00:52:49;;;;;;;18.10;6.80;;;;;;;11.81;100.00;98466.94;5114076;28;20097;-47
2024/02/10 00:55:27;;;;;;;13.60;5.78;;;;;;;11.81;100.00;98472.28;5114404;27;20471;-47
2024/02/10 00:58:02;;;;;;;12.40;5.57;;;;;;;11.71;100.00;98476.78;5114486;27;20047;-47
2024/02/10 01:00:31;;;;;;;11.32;5.60;;;;;;;11.78;100.00;98466.38;5114070;28;20051;-50
2024/02/10 01:03:02;;;;;;;12.23;6.25;;;;;;;11.76;100.00;98463.81;5113822;28;20052;-50
2024/02/10 01:05:31;;;;;;;12.65;5.82;;;;;;;11.76;100.00;98461.16;5113852;28;20138;-48
2024/02/10 01:08:00;;;;;;;15.60;6.68;;;;;;;11.75;100.00;98467.47;5114005;28;20055;-48
2024/02/10 01:10:30;;;;;;;11.57;5.60;;;;;;;11.74;100.00;98460.47;5113787;28;20039;-51
2024/02/10 01:13:01;;;;;;;14.05;6.25;;;;;;;11.81;100.00;98461.59;5113738;28;20416;-50
2024/02/10 01:15:30;;;;;;;13.10;6.30;;;;;;;11.79;100.00;98447.53;5113310;28;20094;-46
2024/02/10 01:18:01;;;;;;;13.90;5.45;;;;;;;11.85;100.00;98438.94;5112876;28;20055;-48
2024/02/10 01:20:32;;;;;;;12.90;5.90;;;;;;;11.84;100.00;98434.59;5111296;28;20040;-52
2024/02/10 01:23:02;;;;;;;12.85;5.15;;;;;;;11.84;100.00;98426.59;5112094;28;20063;-47
2024/02/10 01:25:31;;;;;;;13.02;5.47;;;;;;;11.91;100.00;98427.69;5113270;28;20047;-50
2024/02/10 01:28:01;;;;;;;10.20;5.47;;;;;;;11.94;100.00;98419.38;5113227;28;20047;-48
2024/02/10 01:30:30;;;;;;;15.43;5.47;;;;;;;12.00;100.00;98426.81;5111508;28;20044;-48
2024/02/10 01:32:58;;;;;;;13.38;5.32;;;;;;;12.05;100.00;98429.06;5113612;28;20044;-47
2024/02/10 01:35:27;;;;;;;15.30;5.45;;;;;;;12.09;100.00;98421.59;5112110;28;20047;-47
2024/02/10 01:37:59;;;;;;;12.32;5.13;;;;;;;12.13;100.00;98428.31;5113026;28;20087;-47
2024/02/10 01:40:28;;;;;;;13.45;5.10;;;;;;;11.98;100.00;98425.31;5113059;28;20039;-47
2024/02/10 01:42:56;;;;;;;12.93;5.22;;;;;;;12.06;100.00;98427.22;5112774;28;20497;-48
2024/02/10 01:45:25;;;;;;;15.27;5.47;;;;;;;11.96;100.00;98429.91;5113033;28;20044;-48
2024/02/10 01:47:53;;;;;;;10.52;4.90;;;;;;;11.98;100.00;98423.47;5113122;28;20197;-46
2024/02/10 01:50:21;;;;;;;11.43;4.90;;;;;;;11.99;100.00;98427.81;5113036;28;20044;-50
2024/02/10 01:52:50;;;;;;;9.82;4.50;;;;;;;12.02;100.00;98426.69;5112796;28;20145;-49
2024/02/10 01:55:20;;;;;;;12.57;5.05;;;;;;;12.06;99.76;98417.38;5112964;28;20040;-49
2024/02/10 01:57:57;;;;;;;10.32;4.78;;;;;;;11.95;99.27;98418.38;5113011;28;20135;-48
2024/02/10 02:00:26;;;;;;;11.13;5.40;;;;;;;12.02;98.35;98419.50;5113426;28;20047;-48
2024/02/10 02:02:59;;;;;;;11.00;5.07;;;;;;;11.98;97.72;98415.44;5113506;28;20170;-49
2024/02/10 02:05:28;;;;;;;14.82;5.38;;;;;;;12.00;97.44;98408.13;5113505;28;20051;-49
2024/02/10 02:07:58;;;;;;;10.05;5.00;;;;;;;11.92;98.30;98409.84;5112729;28;20048;-50
2024/02/10 02:10:27;;;;;;;8.70;4.68;;;;;;;11.92;99.67;98409.84;5112385;28;20055;-48
2024/02/10 02:12:57;;;;;;;8.80;5.13;;;;;;;11.91;100.00;98413.50;5112817;28;20422;-52
2024/02/10 02:15:27;;;;;;;12.52;5.50;;;;;;;11.88;100.00;98406.63;5112789;28;20048;-47
2024/02/10 02:17:57;;;;;;;13.15;5.95;;;;;;;11.79;100.00;98407.47;5112493;28;20056;-47
2024/02/10 02:20:28;;;;;;;15.25;5.40;;;;;;;11.71;100.00;98400.16;5112572;28;20498;-50
2024/02/10 02:22:57;;;;;;;11.77;5.60;;;;;;;11.68;100.00;98394.28;5112463;28;20048;-48
2024/02/10 02:25:26;;;;;;;14.50;5.32;;;;;;;11.74;100.00;98396.34;5114897;28;20051;-48
2024/02/10 02:27:57;;;;;;;11.18;5.30;;;;;;;11.71;100.00;98388.63;5115123;28;20043;-48
2024/02/10 02:30:26;;;;;;;13.82;5.88;;;;;;;11.75;100.00;98380.19;5112060;28;20515;-49
2024/02/10 02:32:54;;;;;;;10.93;5.70;;;;;;;11.68;100.00;98380.94;5112570;28;20052;-50
2024/02/10 02:35:22;;;;;;;12.63;5.97;;;;;;;11.65;99.79;98381.19;5112165;28;20071;-46
2024/02/10 02:37:50;;;;;;;11.13;5.45;;;;;;;11.63;98.70;98368.00;5112583;28;20051;-51
2024/02/10 02:40:21;;;;;;;11.73;5.32;;;;;;;11.54;99.21;98378.69;5112473;28;20051;-53
2024/02/10 02:42:50;;;;;;;11.27;5.32;;;;;;;11.64;98.14;98379.50;5112028;28;20120;-47
2024/02/10 02:45:17;;;;;;;10.77;5.28;;;;;;;11.62;96.75;98378.81;5111832;28;20135;-48
2024/02/10 02:47:46;;;;;;;14.32;5.70;;;;;;;11.67;96.72;98374.72;5111952;28;20067;-47
2024/02/10 02:50:14;;;;;;;14.38;5.35;;;;;;;11.70;96.27;98378.94;5111730;28;20458;-46
2024/02/10 02:52:44;;;;;;;9.88;5.20;;;;;;;11.63;96.76;98378.66;5111903;28;20131;-49
2024/02/10 02:55:12;;;;;;;12.15;5.30;;;;;;;11.63;97.42;98369.81;5111687;28;20055;-46
2024/02/10 02:57:43;;;;;;;14.10;6.00;;;;;;;11.61;96.27;98372.63;5111831;28;20170;-48
2024/02/10 03:00:12;;;;;;;12.10;5.50;;;;;;;11.62;96.18;98376.16;5113784;28;20390;-47
2024/02/10 03:02:42;;;;;;;12.00;5.43;;;;;;;11.66;96.01;98377.53;5115368;28;20073;-46
2024/02/10 03:05:11;;;;;;;13.07;5.40;;;;;;;11.55;96.32;98378.53;5112600;28;20506;-47
2024/02/10 03:07:45;;;;;;;10.05;5.35;;;;;;;11.61;96.09;98379.81;5111677;28;20109;-49
2024/02/10 03:10:14;;;;;;;14.98;5.82;;;;;;;11.50;96.17;98369.31;5111650;28;20050;-47
2024/02/10 03:12:44;;;;;;;12.73;6.35;;;;;;;11.52;95.77;98367.31;5111525;28;20058;-46
2024/02/10 03:15:13;;;;;;;10.77;5.80;;;;;;;11.55;95.50;98375.03;5111469;28;20473;-45
2024/02/10 03:17:45;;;;;;;10.85;5.20;;;;;;;11.61;94.13;98369.13;5111585;28;20125;-47
2024/02/10 03:20:14;;;;;;;11.55;5.80;;;;;;;11.54;93.75;98373.34;5111535;28;20487;-46
2024/02/10 03:22:44;;;;;;;11.30;5.38;;;;;;;11.60;93.87;98378.97;5111278;28;20050;-47
2024/02/10 03:25:14;;;;;;;11.38;5.53;;;;;;;11.60;93.66;98378.97;5111364;28;20423;-46
2024/02/10 03:27:44;;;;;;;9.20;5.65;;;;;;;11.56;92.98;98374.88;5111172;28;20048;-47
2024/02/10 03:30:15;;;;;;;10.80;5.25;;;;;;;11.55;92.64;98373.19;5111606;28;20044;-51
2024/02/10 03:32:44;;;;;;;16.42;5.47;;;;;;;11.53;93.14;98379.69;5111506;28;20100;-48
2024/02/10 03:35:12;;;;;;;12.40;5.45;;;;;;;11.59;91.68;98369.28;5111335;28;20047;-45
2024/02/10 03:37:42;;;;;;;11.93;6.18;;;;;;;11.58;91.46;98372.06;5111132;28;20126;-47
2024/02/10 03:40:15;;;;;;;11.35;5.65;;;;;;;11.67;91.20;98373.88;5112452;28;20047;-47
2024/02/10 03:42:45;;;;;;;;;;;;;;;11.60;91.37;98365.63;5116037;28;20082;-47
2024/02/10 03:45:15;;;;;;;16.00;5.90;;;;;;;11.62;90.16;98365.47;5115221;28;20338;-48
2024/02/10 03:47:44;;;;;;;13.15;5.90;;;;;;;11.58;89.54;98369.41;5115130;28;20047;-46
2024/02/10 03:50:13;;;;;;;9.27;5.22;;;;;;;11.56;90.26;98369.53;5115160;28;20047;-49
2024/02/10 03:52:42;;;;;;;16.42;6.15;;;;;;;11.52;88.76;98360.16;5115020;28;20454;-47
2024/02/10 03:55:11;;;;;;;10.77;5.38;;;;;;;11.59;87.69;98355.09;5116352;28;20439;-48
2024/02/10 03:57:39;;;;;;;14.98;5.38;;;;;;;11.62;87.39;98360.13;5118681;28;20465;-49
2024/02/10 04:00:10;;;;;;;12.10;5.38;;;;;;;11.58;87.52;98361.38;5115004;28;20138;-46
2024/02/10 04:02:39;;;;;;;13.45;5.88;;;;;;;11.59;87.60;98360.44;5114533;28;20513;-45
2024/02/10 04:05:08;;;;;;;10.80;5.50;;;;;;;11.45;87.66;98367.88;5114811;28;20044;-46
2024/02/10 04:07:37;;;;;;;8.75;5.25;;;;;;;11.46;87.75;98361.56;5115204;28;20200;-47
2024/02/10 04:10:08;;;;;;;11.48;5.60;;;;;;;11.52;87.36;98352.16;5115260;28;20079;-47
2024/02/10 04:12:38;;;;;;;11.23;5.53;;;;;;;11.43;88.45;98356.50;5114642;28;20052;-47
2024/02/10 04:15:10;;;;;;;11.88;4.85;;;;;;;11.42;87.50;98360.19;5114531;28;20082;-48
2024/02/10 04:17:40;;;;;;;8.85;4.95;;;;;;;11.43;88.03;98361.00;5114496;28;20116;-48
2024/02/10 04:20:10;;;;;;;10.90;4.82;;;;;;;11.38;87.97;98360.59;5114853;28;20079;-49
2024/02/10 04:22:39;;;;;;;10.50;5.00;;;;;;;11.41;87.59;98342.47;5114622;27;20048;-45
2024/02/10 04:25:09;;;;;;;10.50;5.57;;;;;;;11.30;87.96;98334.63;5114597;28;20445;-46
2024/02/10 04:27:38;;;;;;;10.18;5.40;;;;;;;11.39;86.95;98341.78;5114492;28;20123;-46
2024/02/10 04:30:07;;;;;;;12.00;5.50;;;;;;;11.38;88.11;98347.25;5114460;27;20047;-49
2024/02/10 04:32:42;;;;;;;12.02;4.88;;;;;;;11.32;87.92;98343.34;5114338;28;20740;-46
2024/02/10 04:35:12;;;;;;;9.10;5.03;;;;;;;11.24;88.55;98337.03;5114362;28;20061;-47
2024/02/10 04:37:51;;;;;;;10.68;5.07;;;;;;;11.23;88.83;98343.34;5114210;28;20501;-45
2024/02/10 04:40:23;;;;;;;14.48;5.65;;;;;;;11.17;89.52;98342.91;5114339;28;20097;-49
2024/02/10 04:42:53;;;;;;;9.18;4.65;;;;;;;11.12;89.68;98339.00;5113821;28;20055;-47
2024/02/10 04:45:26;;;;;;;10.45;5.18;;;;;;;11.10;89.78;98332.97;5114065;28;20054;-47
2024/02/10 04:47:56;;;;;;;13.50;5.10;;;;;;;11.15;89.70;98320.03;5113947;28;20083;-49
2024/02/10 04:50:28;;;;;;;7.95;4.38;;;;;;;11.16;89.41;98322.56;5113961;28;20043;-47
2024/02/10 04:52:57;;;;;;;9.93;4.18;;;;;;;11.27;88.82;98329.56;5113382;28;20083;-49
2024/02/10 04:55:25;;;;;;;10.15;5.55;;;;;;;11.32;88.38;98326.47;5113623;28;20054;-46
2024/02/10 04:57:57;;;;;;;11.02;5.45;;;;;;;11.25;88.43;98325.38;5114000;27;20069;-45
2024/02/10 05:00:25;;;;;;;15.77;5.10;;;;;;;11.20;88.66;98316.97;5113871;28;20040;-46
2024/02/10 05:02:54;;;;;;;12.32;5.38;;;;;;;11.18;89.04;98314.41;5113754;28;20134;-46
2024/02/10 05:05:22;;;;;;;11.10;5.25;;;;;;;11.14;89.04;98311.19;5113585;27;20100;-47
2024/02/10 05:07:53;;;;;;;13.38;5.28;;;;;;;10.99;90.18;98315.28;5113526;28;20195;-46
2024/02/10 05:10:22;;;;;;;9.85;4.78;;;;;;;11.04;90.41;98315.69;5113792;28;20109;-46
2024/02/10 05:12:52;;;;;;;11.05;4.57;;;;;;;11.11;89.27;98318.66;5113664;28;20079;-46
2024/02/10 05:15:22;;;;;;;8.85;4.45;;;;;;;11.09;89.68;98309.94;5113401;28;20044;-47
2024/02/10 05:17:52;;;;;;;9.73;4.57;;;;;;;11.05;89.57;98309.38;5113595;28;20124;-48
2024/02/10 05:20:22;;;;;;;12.70;5.28;;;;;;;11.07;89.82;98310.06;5113531;28;20717;-49
2024/02/10 05:22:53;;;;;;;10.35;5.05;;;;;;;11.03;89.59;98308.69;5113463;28;20043;-49
2024/02/10 05:25:27;;;;;;;8.98;4.72;;;;;;;11.05;89.12;98298.72;5113552;28;20500;-47
2024/02/10 05:28:00;;;;;;;10.98;4.65;;;;;;;11.08;88.87;98308.25;5114287;28;20058;-46
2024/02/10 05:30:29;;;;;;;9.30;4.70;;;;;;;10.98;89.68;98307.41;5113371;28;20071;-46
2024/02/10 05:33:01;;;;;;;10.18;5.30;;;;;;;10.92;89.89;98316.84;5112904;28;20458;-46
2024/02/10 05:35:31;;;;;;;12.35;5.32;;;;;;;10.93;90.08;98309.69;5112950;28;20040;-47
2024/02/10 05:38:03;;;;;;;11.70;4.97;;;;;;;10.95;89.78;98318.38;5112792;28;20047;-46
2024/02/10 05:40:32;;;;;;;9.80;4.70;;;;;;;10.96;89.57;98320.91;5112886;28;20115;-49
2024/02/10 05:43:04;;;;;;;11.63;5.60;;;;;;;10.96;89.75;98326.22;5113168;28;20047;-47
2024/02/10 05:45:34;;;;;;;10.80;5.28;;;;;;;10.93;89.53;98325.69;5112945;28;20135;-47
2024/02/10 05:48:04;;;;;;;12.02;4.60;;;;;;;10.94;90.03;98327.38;5113044;28;20047;-48
2024/02/10 05:50:33;;;;;;;11.07;4.82;;;;;;;10.95;89.56;98337.88;5113022;28;20055;-48
2024/02/10 05:53:03;;;;;;;11.05;5.15;;;;;;;11.04;89.08;98341.53;5112843;28;20044;-44
2024/02/10 05:55:31;;;;;;;14.55;5.15;;;;;;;11.06;88.33;98344.91;5112910;28;20128;-47
2024/02/10 05:58:01;;;;;;;11.20;5.47;;;;;;;11.00;88.68;98348.13;5112555;28;20048;-48
2024/02/10 06:00:31;;;;;;;12.98;5.03;;;;;;;10.98;88.86;98342.09;5112645;27;20189;-47
2024/02/10 06:03:02;;;;;;;12.40;4.72;;;;;;;11.01;88.84;98337.34;5111870;28;20062;-48
2024/02/10 06:05:31;;;;;;;11.95;5.07;;;;;;;11.03;88.61;98346.03;5112139;28;20127;-48
2024/02/10 06:08:00;;;;;;;12.77;5.40;;;;;;;10.99;88.61;98347.28;5112506;28;20051;-47
2024/02/10 06:10:30;;;;;;;13.52;5.72;;;;;;;11.01;88.89;98350.69;5112482;28;20055;-48
2024/02/10 06:12:59;;;;;;;10.13;5.15;;;;;;;11.05;89.00;98348.56;5112805;28;20047;-49
2024/02/10 06:15:29;;;;;;;11.85;5.28;;;;;;;11.02;88.93;98359.53;5112525;28;20461;-47
2024/02/10 06:17:59;;;;;;;12.43;5.80;;;;;;;10.99;89.53;98362.44;5112481;28;20086;-48
2024/02/10 06:20:28;;;;;;;10.77;5.03;;;;;;;11.04;89.00;98354.88;5106499;27;20040;-49
2024/02/10 06:22:58;;;;;;;9.70;5.13;;;;;;;11.09;88.88;98368.63;5091909;28;20052;-47
2024/02/10 06:25:27;;;;;;;11.05;5.05;;;;;;;11.07;88.43;98363.44;5092007;28;20051;-49
2024/02/10 06:28:00;;;;;;;10.80;5.10;;;;;;;11.08;88.84;98374.94;5091905;28;20525;-51
2024/02/10 06:30:32;;;;;;;12.38;5.35;;;;;;;11.08;88.73;98369.59;5091574;28;20048;-46
2024/02/10 06:33:01;;;;;;;9.82;5.35;;;;;;;11.10;88.62;98373.00;5091450;28;20442;-47
2024/02/10 06:35:30;;;;;;;9.15;5.10;;;;;;;11.15;88.42;98360.91;5091395;28;20732;-47
2024/02/10 06:37:58;;;;;;;12.63;5.47;;;;;;;11.09;88.57;98353.44;5090916;28;20062;-46
2024/02/10 06:40:27;;;;;;;10.45;5.00;;;;;;;11.13;88.75;98370.03;5090948;28;20331;-48
2024/02/10 06:42:55;;;;;;;9.32;5.32;;;;;;;11.11;89.01;98378.19;5091172;28;20047;-47
2024/02/10 06:45:25;;;;;;;9.45;5.10;;;;;;;11.05;89.70;98380.56;5091079;28;20128;-48
2024/02/10 06:47:54;;;;;;;13.77;5.30;;;;;;;11.06;90.09;98395.59;5091194;28;20081;-47
2024/02/10 06:50:26;;;;;;;13.38;5.80;;;;;;;11.22;89.50;98389.72;5091001;28;20452;-46
2024/02/10 06:52:59;;;;;;;14.55;5.22;;;;;;;11.27;88.56;98392.78;5091221;28;20048;-48
2024/02/10 06:55:30;;;;;;;13.02;5.20;;;;;;;11.42;87.39;98394.88;5090915;28;20055;-46
2024/02/10 06:58:02;;;;;;;9.18;4.85;;;;;;;11.59;86.92;98384.47;5091099;28;20051;-49
2024/02/10 07:00:37;;;;;;;10.15;5.20;;;;;;;11.74;85.39;98385.66;5090647;28;20055;-48
2024/02/10 07:03:06;;;;;;;13.40;5.38;;;;;;;11.73;84.95;98386.66;5090618;28;20048;-47
2024/02/10 07:05:34;;;;;;;9.80;4.88;;;;;;;11.73;85.16;98387.50;5091149;28;20060;-47
2024/02/10 07:08:05;;;;;;;10.27;5.10;;;;;;;11.76;85.11;98386.34;5090838;28;20055;-46
2024/02/10 07:10:34;;;;;;;25.38;11.77;;;;;;;11.81;84.96;98391.31;5090640;28;20508;-46
2024/02/10 07:13:04;;;;;;;11.32;5.60;;;;;;;11.81;84.85;98396.66;5090727;28;20638;-49
2024/02/10 07:15:34;;;;;;;11.25;4.78;;;;;;;11.92;83.80;98400.00;5090361;28;20526;-47
2024/02/10 07:18:06;;;;;;;13.13;5.05;;;;;;;12.07;82.72;98403.03;5091069;28;20075;-47
2024/02/10 07:20:35;;;;;;;9.65;4.35;;;;;;;12.13;82.29;98407.78;5090915;28;20054;-48
2024/02/10 07:23:04;;;;;;;10.93;4.82;;;;;;;12.19;81.87;98403.69;5090834;28;20040;-47
2024/02/10 07:25:35;;;;;;;9.82;5.10;;;;;;;12.20;82.17;98394.69;5090778;28;20052;-47
2024/02/10 07:28:05;;;;;;;15.50;4.88;;;;;;;12.22;81.54;98390.88;5090593;28;20136;-46
2024/02/10 07:30:35;;;;;;;9.45;4.82;;;;;;;12.39;81.03;98402.63;5090580;28;20044;-46
2024/02/10 07:33:08;;;;;;;11.45;4.85;;;;;;;12.40;80.97;98398.09;5090359;28;20125;-47
2024/02/10 07:35:39;;;;;;;11.75;4.80;;;;;;;12.30;81.35;98395.47;5090800;28;20676;-47
2024/02/10 07:38:08;;;;;;;11.63;5.43;;;;;;;12.45;80.85;98399.34;5091492;28;20127;-48
2024/02/10 07:40:38;;;;;;;13.68;5.63;;;;;;;12.55;80.17;98402.81;5094157;28;20052;-47
2024/02/10 07:43:13;;;;;;;12.32;5.10;;;;;;;12.68;79.79;98396.25;5091125;28;20120;-45
2024/02/10 07:45:43;;;;;;;10.02;4.53;;;;;;;12.79;79.12;98398.72;5090637;28;20048;-48
2024/02/10 07:48:12;;;;;;;9.45;4.63;;;;;;;12.75;78.69;98395.50;5090647;28;20129;-49
2024/02/10 07:50:41;;;;;;;10.60;4.60;;;;;;;12.76;78.64;98399.88;5090464;28;20493;-48
2024/02/10 07:53:14;;;;;;;13.52;4.70;;;;;;;12.69;79.32;98400.63;5090291;28;20203;-49
2024/02/10 07:55:46;;;;;;;11.80;5.13;;;;;;;12.66;79.06;98396.41;5090622;28;20091;-44
2024/02/10 07:58:15;;;;;;;14.07;5.28;;;;;;;12.78;78.96;98397.03;5090729;28;20052;-48
2024/02/10 08:00:49;;;;;;;11.55;4.90;;;;;;;12.86;78.05;98402.47;5090551;28;20055;-46
2024/02/10 08:03:19;;;;;;;12.80;5.13;;;;;;;13.01;77.65;98403.63;5090304;28;20052;-47
2024/02/10 08:05:51;;;;;;;13.23;5.95;;;;;;;12.97;77.80;98407.59;5099161;28;20070;-49
2024/02/10 08:08:23;;;;;;;11.65;4.35;;;;;;;12.98;77.51;98403.94;5110701;28;20134;-45
2024/02/10 08:10:53;;;;;;;12.00;5.60;;;;;;;13.07;77.04;98400.34;5110714;28;20044;-47
2024/02/10 08:13:24;;;;;;;12.45;5.10;;;;;;;13.17;76.18;98398.44;5110789;28;20047;-46
2024/02/10 08:15:55;;;;;;;12.73;4.57;;;;;;;13.15;75.93;98397.75;5110676;28;20047;-46
2024/02/10 08:18:26;;;;;;;11.50;4.85;;;;;;;13.33;75.36;98396.94;5110659;28;20131;-47
2024/02/10 08:20:57;;;;;;;11.90;4.68;;;;;;;13.38;74.94;98389.25;5110816;28;20043;-47
2024/02/10 08:23:26;;;;;;;10.10;4.72;;;;;;;13.39;75.08;98393.63;5110688;28;20135;-48
2024/02/10 08:25:54;;;;;;;10.73;5.30;;;;;;;13.53;74.13;98384.19;5110582;28;20086;-48
2024/02/10 08:28:23;;;;;;;10.88;5.00;;;;;;;13.58;73.68;98389.91;5113480;28;20044;-47
2024/02/10 08:30:53;;;;;;;12.98;5.03;;;;;;;13.77;72.70;98388.88;5113901;28;20051;-48
2024/02/10 08:33:23;;;;;;;13.82;5.30;;;;;;;13.87;72.07;98393.13;5114203;28;20047;-48
2024/02/10 08:35:52;;;;;;;11.15;4.57;;;;;;;13.90;72.29;98383.94;5113617;28;20066;-50
2024/02/10 08:38:21;;;;;;;11.25;4.82;;;;;;;13.91;71.63;98393.66;5113983;28;20050;-50
2024/02/10 08:40:50;;;;;;;9.90;4.30;;;;;;;14.00;71.11;98396.25;5113831;28;20134;-46
2024/02/10 08:43:21;;;;;;;10.40;4.32;;;;;;;14.02;70.89;98402.28;5114149;28;20472;-48
2024/02/10 08:45:49;;;;;;;8.63;4.38;;;;;;;14.18;69.36;98401.50;5114067;28;20047;-50
2024/02/10 08:48:17;;;;;;;8.07;4.05;;;;;;;14.14;70.05;98397.47;5114114;28;20116;-51
2024/02/10 08:50:47;;;;;;;12.02;4.50;;;;;;;14.23;69.67;98412.59;5113963;28;20044;-49
2024/02/10 08:53:16;;;;;;;11.13;3.90;;;;;;;14.41;68.56;98399.13;5113809;28;20557;-50
2024/02/10 08:55:45;;;;;;;14.27;4.38;;;;;;;14.49;67.98;98409.06;5113863;28;20134;-47
2024/02/10 08:58:15;;;;;;;15.85;4.60;;;;;;;14.60;67.61;98414.13;5113647;28;20047;-49
2024/02/10 09:00:45;;;;;;;10.00;3.85;;;;;;;14.65;67.35;98413.63;5113350;28;20556;-51
2024/02/10 09:03:14;;;;;;;9.00;3.85;;;;;;;14.66;66.51;98412.63;5113436;28;20047;-49
2024/02/10 09:05:43;;;;;;;7.65;3.47;;;;;;;14.76;66.33;98413.34;5113374;28;20515;-51
2024/02/10 09:08:12;;;;;;;8.10;3.70;;;;;;;14.95;65.27;98412.22;5113455;28;20440;-49
2024/02/10 09:10:40;;;;;;;7.85;3.35;;;;;;;15.02;64.94;98413.25;5113532;28;20043;-51
2024/02/10 09:13:09;;;;;;;9.57;2.85;;;;;;;15.10;62.97;98415.94;5113557;28;20051;-49
2024/02/10 09:15:38;;;;;;;6.95;2.78;;;;;;;15.09;63.05;98420.47;5113494;28;20369;-48
2024/02/10 09:18:07;;;;;;;10.25;2.83;;;;;;;15.27;62.00;98422.19;5113052;28;20440;-49
2024/02/10 09:20:36;;;;;;;12.00;2.88;;;;;;;15.41;61.46;98416.97;5112941;28;20043;-49
2024/02/10 09:23:04;;;;;;;8.80;2.65;;;;;;;15.45;61.03;98418.34;5113219;28;20051;-50
2024/02/10 09:25:36;;;;;;;7.95;2.80;;;;;;;15.53;60.08;98413.94;5113337;28;20136;-49
2024/02/10 09:28:06;;;;;;;7.83;2.83;;;;;;;15.66;59.66;98427.78;5113399;28;20536;-49
2024/02/10 09:30:35;;;;;;;7.45;2.78;;;;;;;15.68;59.28;98418.53;5113533;27;20073;-49
2024/02/10 09:33:07;;;;;;;6.25;2.63;;;;;;;15.69;59.07;98424.75;5113188;28;20089;-49
2024/02/10 09:35:39;;;;;;;7.03;2.78;;;;;;;15.84;58.72;98425.75;5113058;28;20055;-47
2024/02/10 09:38:13;;;;;;;7.30;2.28;;;;;;;15.84;57.90;98419.53;5112892;28;20075;-50
2024/02/10 09:40:43;;;;;;;9.93;3.05;;;;;;;15.83;58.15;98423.22;5112955;28;20069;-51
2024/02/10 09:43:15;;;;;;;8.63;2.65;;;;;;;15.92;57.78;98427.56;5113437;27;20086;-50
2024/02/10 09:45:46;;;;;;;7.78;2.90;;;;;;;16.07;57.36;98415.09;5112993;28;20044;-50
2024/02/10 09:48:18;;;;;;;10.00;2.70;;;;;;;16.00;57.01;98414.09;5112824;28;20468;-47
2024/02/10 09:50:47;;;;;;;5.70;2.50;;;;;;;16.06;56.64;98418.81;5113139;28;20047;-48
2024/02/10 09:53:16;;;;;;;7.53;2.97;;;;;;;16.09;56.43;98417.63;5112835;28;20040;-48
2024/02/10 09:55:46;;;;;;;7.53;2.55;;;;;;;16.11;56.19;98415.59;5112147;28;20100;-49
2024/02/10 09:58:16;;;;;;;9.38;2.53;;;;;;;16.25;55.87;98413.03;5092686;28;20146;-49
2024/02/10 10:00:47;;;;;;;8.23;2.40;;;;;;;16.13;55.86;98417.13;5092207;28;20044;-48
2024/02/10 10:03:16;;;;;;;10.93;2.60;;;;;;;16.17;55.42;98420.28;5092279;28;20048;-53
2024/02/10 10:05:49;;;;;;;5.25;2.22;;;;;;;16.21;55.25;98417.09;5092375;28;20048;-46
2024/02/10 10:08:22;;;;;;;7.50;2.25;;;;;;;16.13;55.88;98413.59;5092119;28;20051;-53
2024/02/10 10:10:52;;;;;;;7.18;2.45;;;;;;;16.12;55.13;98423.50;5092130;28;20044;-51
2024/02/10 10:13:21;;;;;;;8.63;2.35;;;;;;;16.15;55.57;98416.94;5092029;28;20143;-48
2024/02/10 10:15:50;;;;;;;12.40;2.67;;;;;;;16.20;55.29;98410.00;5096905;28;20429;-45
2024/02/10 10:18:19;;;;;;;6.57;2.28;;;;;;;16.19;55.20;98402.97;5102528;28;20076;-48
2024/02/10 10:20:51;;;;;;;8.25;2.40;;;;;;;16.34;55.59;98408.47;5094037;28;20101;-46
2024/02/10 10:23:19;;;;;;;7.05;2.50;;;;;;;16.44;55.48;98406.41;5106546;28;20044;-49
2024/02/10 10:25:47;;;;;;;7.40;2.70;;;;;;;16.33;55.42;98404.13;5110001;28;20058;-47
2024/02/10 10:28:18;;;;;;;9.45;2.92;;;;;;;16.35;55.18;98402.09;5092620;28;20116;-46
2024/02/10 10:30:48;;;;;;;8.80;2.47;;;;;;;16.54;54.40;98396.28;5100068;28;20131;-49
2024/02/10 10:33:19;;;;;;;6.57;2.47;;;;;;;16.64;54.65;98384.47;5103114;28;20047;-46
2024/02/10 10:35:49;;;;;;;8.38;2.40;;;;;;;16.65;52.78;98386.97;5096430;28;20397;-46
2024/02/10 10:38:19;;;;;;;10.32;2.60;;;;;;;16.81;52.54;98399.56;5101773;28;20043;-47
2024/02/10 10:40:51;;;;;;;8.20;2.60;;;;;;;16.93;51.57;98390.06;5103018;28;20055;-50
2024/02/10 10:43:25;;;;;;;8.60;2.60;;;;;;;16.97;50.83;98379.75;5102370;28;20047;-48
2024/02/10 10:45:55;;;;;;;10.50;2.58;;;;;;;16.96;50.78;98384.31;5104283;28;20051;-48
2024/02/10 10:48:24;;;;;;;5.10;2.28;;;;;;;16.94;49.85;98383.66;5094372;28;20043;-49
2024/02/10 10:50:57;;;;;;;5.82;1.92;;;;;;;16.97;49.37;98369.81;5096835;28;20651;-48
2024/02/10 10:53:27;;;;;;;4.22;1.98;;;;;;;17.01;49.31;98376.53;5104850;27;20066;-46
2024/02/10 10:56:01;;;;;;;7.43;2.30;;;;;;;16.98;49.99;98376.03;5090770;28;20097;-47
2024/02/10 10:58:33;;;;;;;;;;;;;;;17.01;49.81;98368.47;5108576;28;20086;-50
2024/02/10 11:01:03;;;;;;;6.53;2.20;;;;;;;17.00;50.01;98369.47;5112365;28;19919;-46
2024/02/10 11:03:31;;;;;;;7.43;2.30;;;;;;;17.09;49.30;98362.19;5111743;28;20051;-49
2024/02/10 11:06:10;;;;;;;14.10;2.50;;;;;;;17.11;49.55;98360.16;5112127;28;20135;-51
2024/02/10 11:08:41;;;;;;;5.32;2.10;;;;;;;17.07;49.14;98358.81;5112010;28;20043;-50
2024/02/10 11:11:13;;;;;;;8.43;2.20;;;;;;;17.17;49.02;98354.84;5111819;28;20083;-50
2024/02/10 11:13:43;;;;;;;6.75;2.75;;;;;;;17.17;48.26;98357.56;5111823;28;20408;-51
2024/02/10 11:16:13;;;;;;;5.70;2.08;;;;;;;17.16;48.85;98355.88;5111754;28;20044;-48
2024/02/10 11:18:44;;;;;;;9.55;2.40;;;;;;;17.22;48.89;98353.50;5112029;28;20047;-50
2024/02/10 11:21:19;;;;;;;6.88;2.00;;;;;;;17.23;48.31;98355.16;5111819;28;20051;-48
2024/02/10 11:23:59;;;;;;;9.15;2.10;;;;;;;17.24;48.80;98348.75;5111966;28;20438;-50
2024/02/10 11:26:31;;;;;;;5.85;2.05;;;;;;;17.24;48.12;98349.59;5111755;28;20043;-49
2024/02/10 11:29:02;;;;;;;5.78;2.03;;;;;;;17.22;48.70;98345.41;5112253;28;20040;-50
2024/02/10 11:31:33;;;;;;;7.57;2.13;;;;;;;17.26;48.19;98357.50;5111641;28;20051;-50
2024/02/10 11:34:05;;;;;;;11.38;2.63;;;;;;;17.34;48.46;98338.56;5111710;28;20138;-50
2024/02/10 11:36:35;;;;;;;8.05;2.22;;;;;;;17.39;48.21;98345.09;5111735;28;20126;-48
2024/02/10 11:39:07;;;;;;;7.18;2.38;;;;;;;17.40;48.56;98344.09;5111793;28;20130;-48